createdAt,value
2023-04-07T00:01:17.014Z,7.40
2023-04-07T00:03:47.829Z,7.97
2023-04-07T00:06:14.637Z,7.35
2023-04-07T00:08:45.770Z,7.20
2023-04-07T00:11:17.363Z,7.15
2023-04-07T00:19:43.046Z,7.47
2023-04-07T00:22:22.489Z,6.63
2023-04-07T00:24:54.596Z,7.20
2023-04-07T00:27:23.414Z,7.20
2023-04-07T00:29:55.340Z,7.15
2023-04-07T00:32:22.772Z,7.55
2023-04-07T00:34:53.962Z,6.40
2023-04-07T00:37:23.104Z,6.70
2023-04-07T00:39:51.603Z,6.90
2023-04-07T00:42:21.465Z,6.70
2023-04-07T00:44:52.830Z,6.55
2023-04-07T00:47:20.662Z,7.43
2023-04-07T00:49:48.956Z,7.22
2023-04-07T00:52:17.890Z,6.82
2023-04-07T00:54:44.695Z,6.43
2023-04-07T00:57:11.789Z,6.55
2023-04-07T00:59:38.721Z,7.00
2023-04-07T01:02:17.922Z,6.57
2023-04-07T01:04:47.130Z,7.50
2023-04-07T01:07:30.271Z,6.68
2023-04-07T01:10:06.982Z,6.50
2023-04-07T01:12:43.108Z,6.65
2023-04-07T01:15:13.844Z,6.50
2023-04-07T01:17:45.747Z,6.65
2023-04-07T01:20:17.842Z,6.85
2023-04-07T01:22:54.579Z,6.18
2023-04-07T01:25:37.699Z,7.05
2023-04-07T01:28:27.372Z,7.53
2023-04-07T01:30:59.107Z,7.65
2023-04-07T01:33:29.398Z,6.60
2023-04-07T01:36:01.493Z,6.97
2023-04-07T01:38:31.239Z,5.82
2023-04-07T01:41:08.809Z,6.65
2023-04-07T01:43:38.725Z,6.32
2023-04-07T01:46:08.138Z,6.28
2023-04-07T01:48:37.449Z,6.50
2023-04-07T01:51:12.015Z,6.90
2023-04-07T01:53:43.825Z,6.25
2023-04-07T01:56:12.800Z,6.45
2023-04-07T01:58:39.717Z,5.90
2023-04-07T02:01:07.586Z,6.00
2023-04-07T02:03:56.080Z,6.18
2023-04-07T02:06:26.879Z,6.32
2023-04-07T02:08:56.419Z,6.07
2023-04-07T02:14:01.055Z,6.18
2023-04-07T02:16:29.924Z,6.65
2023-04-07T02:18:58.148Z,6.32
2023-04-07T02:21:30.935Z,6.20
2023-04-07T02:24:00.738Z,6.43
2023-04-07T02:26:29.527Z,6.40
2023-04-07T02:29:00.914Z,6.47
2023-04-07T02:31:30.834Z,6.30
2023-04-07T02:34:03.288Z,6.30
2023-04-07T02:36:35.609Z,6.30
2023-04-07T02:39:05.569Z,6.15
2023-04-07T02:41:36.935Z,6.65
2023-04-07T02:44:03.552Z,6.72
2023-04-07T02:46:32.609Z,6.00
2023-04-07T02:49:08.041Z,6.07
2023-04-07T02:51:34.712Z,5.97
2023-04-07T02:54:01.581Z,5.72
2023-04-07T02:56:38.059Z,6.68
2023-04-07T02:59:09.519Z,6.63
2023-04-07T03:01:41.652Z,6.28
2023-04-07T03:04:12.535Z,6.00
2023-04-07T03:06:41.881Z,5.82
2023-04-07T03:09:08.612Z,6.05
2023-04-07T03:11:40.068Z,6.03
2023-04-07T03:14:08.957Z,6.13
2023-04-07T03:16:37.830Z,6.18
2023-04-07T03:19:04.460Z,5.90
2023-04-07T03:21:33.570Z,6.18
2023-04-07T03:24:02.358Z,6.20
2023-04-07T03:26:33.864Z,6.00
2023-04-07T03:29:00.538Z,6.20
2023-04-07T03:34:08.518Z,5.75
2023-04-07T03:36:37.343Z,6.90
2023-04-07T03:39:06.956Z,6.07
2023-04-07T03:41:33.745Z,5.72
2023-04-07T03:44:08.012Z,5.53
2023-04-07T03:46:34.667Z,5.75
2023-04-07T03:49:03.488Z,5.75
2023-04-07T03:51:37.390Z,5.82
2023-04-07T03:54:07.448Z,6.00
2023-04-07T03:56:41.412Z,5.65
2023-04-07T03:59:10.247Z,6.15
2023-04-07T04:01:39.092Z,5.90
2023-04-07T04:04:10.663Z,5.22
2023-04-07T04:06:39.939Z,5.28
2023-04-07T04:09:06.738Z,5.38
2023-04-07T04:11:35.793Z,5.05
2023-04-07T04:14:02.664Z,5.93
2023-04-07T04:16:31.461Z,5.03
2023-04-07T04:19:00.402Z,6.35
2023-04-07T04:21:29.441Z,5.53
2023-04-07T04:24:02.105Z,5.60
2023-04-07T04:26:32.870Z,6.60
2023-04-07T04:29:02.806Z,5.18
2023-04-07T04:31:33.895Z,5.50
2023-04-07T04:34:05.057Z,5.85
2023-04-07T04:36:32.134Z,5.70
2023-04-07T04:39:01.823Z,5.50
2023-04-07T04:41:44.084Z,5.70
2023-04-07T04:44:11.241Z,5.95
2023-04-07T04:46:38.037Z,5.75
2023-04-07T04:49:07.571Z,5.65
2023-04-07T04:51:34.446Z,5.32
2023-04-07T04:54:09.024Z,5.57
2023-04-07T04:56:37.959Z,5.32
2023-04-07T04:59:05.894Z,6.28
2023-04-07T05:01:37.392Z,5.75
2023-04-07T05:04:06.679Z,5.72
2023-04-07T05:06:33.437Z,5.38
2023-04-07T05:09:00.396Z,5.78
2023-04-07T05:11:30.156Z,5.40
2023-04-07T05:14:02.235Z,5.38
2023-04-07T05:16:31.643Z,5.30
2023-04-07T05:19:01.594Z,5.63
2023-04-07T05:21:34.314Z,5.35
2023-04-07T05:24:03.137Z,5.43
2023-04-07T05:26:35.485Z,5.45
2023-04-07T05:29:02.497Z,5.38
2023-04-07T05:31:31.927Z,5.32
2023-04-07T05:34:00.745Z,6.07
2023-04-07T05:36:27.818Z,7.28
2023-04-07T05:38:56.596Z,5.65
2023-04-07T05:41:27.880Z,5.63
2023-04-07T05:46:24.539Z,6.50
2023-04-07T05:49:00.803Z,5.63
2023-04-07T05:51:34.904Z,5.57
2023-04-07T05:54:04.692Z,5.60
2023-04-07T05:56:31.503Z,6.00
2023-04-07T05:59:02.289Z,5.22
2023-04-07T06:01:29.578Z,5.53
2023-04-07T06:03:59.843Z,8.75
2023-04-07T06:06:28.955Z,18.40
2023-04-07T06:08:56.633Z,17.40
2023-04-07T06:11:28.483Z,18.20
2023-04-07T06:13:55.186Z,23.35
2023-04-07T06:16:27.482Z,17.50
2023-04-07T06:18:56.269Z,31.83
2023-04-07T06:21:23.041Z,23.98
2023-04-07T06:23:49.808Z,20.50
2023-04-07T06:26:16.723Z,23.05
2023-04-07T06:28:46.326Z,21.73
2023-04-07T06:31:15.640Z,20.55
2023-04-07T06:33:42.365Z,21.05
2023-04-07T06:36:09.298Z,20.80
2023-04-07T06:38:38.439Z,24.55
2023-04-07T06:41:05.434Z,21.48
2023-04-07T06:43:32.158Z,20.08
2023-04-07T06:45:58.861Z,18.05
2023-04-07T06:48:30.417Z,19.27
2023-04-07T06:50:57.037Z,20.17
2023-04-07T06:53:25.967Z,18.52
2023-04-07T06:55:52.654Z,17.67
2023-04-07T06:58:21.900Z,14.80
2023-04-07T07:00:53.442Z,16.25
2023-04-07T07:03:27.832Z,14.82
2023-04-07T07:06:01.354Z,17.95
2023-04-07T07:08:30.851Z,15.90
2023-04-07T07:10:57.812Z,15.13
2023-04-07T07:13:27.662Z,13.30
2023-04-07T07:15:57.067Z,14.77
2023-04-07T07:18:23.782Z,14.15
2023-04-07T07:20:52.641Z,15.25
2023-04-07T07:23:19.249Z,14.18
2023-04-07T07:25:50.661Z,16.40
2023-04-07T07:28:19.606Z,17.67
2023-04-07T07:30:51.842Z,15.07
2023-04-07T07:33:20.070Z,15.43
2023-04-07T07:35:49.383Z,14.38
2023-04-07T07:38:22.823Z,15.93
2023-04-07T07:40:49.624Z,16.35
2023-04-07T07:43:18.643Z,16.63
2023-04-07T07:45:50.854Z,12.80
2023-04-07T07:48:17.476Z,13.80
2023-04-07T07:50:47.269Z,15.20
2023-04-07T07:53:16.705Z,15.93
2023-04-07T07:55:43.649Z,16.67
2023-04-07T07:58:13.298Z,15.05
2023-04-07T08:00:45.382Z,15.85
2023-04-07T08:03:12.137Z,14.45
2023-04-07T08:05:38.921Z,12.85
2023-04-07T08:08:05.716Z,11.93
2023-04-07T08:10:32.410Z,12.98
2023-04-07T08:13:01.884Z,13.25
2023-04-07T08:15:34.186Z,13.10
2023-04-07T08:18:03.171Z,18.10
2023-04-07T08:20:34.641Z,12.05
2023-04-07T08:23:04.017Z,13.52
2023-04-07T08:25:35.408Z,16.10
2023-04-07T08:28:04.206Z,13.85
2023-04-07T08:30:36.044Z,13.55
2023-04-07T08:33:06.687Z,11.38
2023-04-07T08:35:35.950Z,14.55
2023-04-07T08:38:06.172Z,12.40
2023-04-07T08:40:35.022Z,11.48
2023-04-07T08:43:10.687Z,12.60
2023-04-07T08:45:42.073Z,11.90
2023-04-07T08:48:17.745Z,11.38
2023-04-07T08:50:47.504Z,11.93
2023-04-07T08:53:18.897Z,11.40
2023-04-07T08:55:45.604Z,11.35
2023-04-07T08:58:15.949Z,13.30
2023-04-07T09:00:49.283Z,10.97
2023-04-07T09:03:21.973Z,11.70
2023-04-07T09:05:51.367Z,11.57
2023-04-07T09:08:20.562Z,9.73
2023-04-07T09:10:49.387Z,12.10
2023-04-07T09:13:23.257Z,9.10
2023-04-07T09:15:52.223Z,8.13
2023-04-07T09:18:24.066Z,9.05
2023-04-07T09:21:01.435Z,10.13
2023-04-07T09:23:35.081Z,10.00
2023-04-07T09:26:29.251Z,8.68
2023-04-07T09:28:59.568Z,10.45
2023-04-07T09:31:50.617Z,9.83
2023-04-07T09:34:28.097Z,8.13
2023-04-07T09:37:00.112Z,8.35
2023-04-07T09:39:29.295Z,9.15
2023-04-07T09:42:01.209Z,8.90
2023-04-07T09:44:32.584Z,8.35
2023-04-07T09:47:03.898Z,9.18
2023-04-07T09:49:30.489Z,7.57
2023-04-07T09:52:07.930Z,8.70
2023-04-07T09:54:41.922Z,7.55
2023-04-07T09:57:09.518Z,7.65
2023-04-07T09:59:39.866Z,8.45
2023-04-07T10:02:07.530Z,8.00
2023-04-07T10:04:38.981Z,8.48
2023-04-07T10:07:05.784Z,8.23
2023-04-07T10:09:34.786Z,7.80
2023-04-07T10:12:04.354Z,9.95
2023-04-07T10:14:33.710Z,7.43
2023-04-07T10:17:00.558Z,7.85
2023-04-07T10:19:31.927Z,7.95
2023-04-07T10:21:58.677Z,7.95
2023-04-07T10:24:49.212Z,9.77
2023-04-07T10:27:20.991Z,8.03
2023-04-07T10:29:49.493Z,8.38
2023-04-07T10:32:16.309Z,8.13
2023-04-07T10:34:53.773Z,10.23
2023-04-07T10:37:23.712Z,7.25
2023-04-07T10:40:09.599Z,8.05
2023-04-07T10:42:39.590Z,7.15
2023-04-07T10:45:07.155Z,8.50
2023-04-07T10:47:39.094Z,8.43
2023-04-07T10:53:12.190Z,11.15
2023-04-07T10:55:44.690Z,8.20
2023-04-07T10:58:21.567Z,7.82
2023-04-07T11:00:57.572Z,8.88
2023-04-07T11:03:31.872Z,8.32
2023-04-07T11:06:09.382Z,9.75
2023-04-07T11:08:42.924Z,8.57
2023-04-07T11:11:11.650Z,10.15
2023-04-07T11:13:51.218Z,9.65
2023-04-07T11:16:19.545Z,9.07
2023-04-07T11:18:49.042Z,8.95
2023-04-07T11:21:20.415Z,9.07
2023-04-07T11:23:50.343Z,8.07
2023-04-07T11:26:25.078Z,9.50
2023-04-07T11:28:59.286Z,9.20
2023-04-07T11:31:32.417Z,8.52
2023-04-07T11:34:05.286Z,7.03
2023-04-07T11:36:35.836Z,8.38
2023-04-07T11:39:07.194Z,7.60
2023-04-07T11:41:36.720Z,7.75
2023-04-07T11:44:12.307Z,11.80
2023-04-07T11:46:55.093Z,8.55
2023-04-07T11:49:25.008Z,9.15
2023-04-07T11:52:02.995Z,9.07
2023-04-07T11:54:50.556Z,11.60
2023-04-07T11:57:32.145Z,7.80
2023-04-07T12:00:12.134Z,7.47
2023-04-07T12:02:38.935Z,6.70
2023-04-07T12:05:06.674Z,6.90
2023-04-07T12:07:36.232Z,7.93
2023-04-07T12:10:18.770Z,7.35
2023-04-07T12:12:46.314Z,8.48
2023-04-07T12:15:15.216Z,6.25
2023-04-07T12:17:50.799Z,8.27
2023-04-07T12:20:22.697Z,7.72
2023-04-07T12:22:49.948Z,6.63
2023-04-07T12:25:16.717Z,7.05
2023-04-07T12:27:45.765Z,9.32
2023-04-07T12:30:14.728Z,8.15
2023-04-07T12:32:45.249Z,9.90
2023-04-07T12:35:12.969Z,8.50
2023-04-07T12:37:39.863Z,6.57
2023-04-07T12:40:12.194Z,9.02
2023-04-07T12:42:39.655Z,7.57
2023-04-07T12:45:09.820Z,9.73
2023-04-07T12:47:41.884Z,10.00
2023-04-07T12:50:13.443Z,12.32
2023-04-07T12:52:40.212Z,12.20
2023-04-07T12:55:10.157Z,7.63
2023-04-07T12:57:39.867Z,9.73
2023-04-07T13:00:07.397Z,7.68
2023-04-07T13:02:37.328Z,8.35
2023-04-07T13:05:06.774Z,10.43
2023-04-07T13:07:41.726Z,8.85
2023-04-07T13:10:14.127Z,8.32
2023-04-07T13:12:42.328Z,11.88
2023-04-07T13:15:16.257Z,9.02
2023-04-07T13:17:42.982Z,9.02
2023-04-07T13:20:09.737Z,11.55
2023-04-07T13:22:36.377Z,14.43
2023-04-07T13:25:03.276Z,8.52
2023-04-07T13:27:29.996Z,8.88
2023-04-07T13:29:56.814Z,7.00
2023-04-07T13:32:23.736Z,12.98
2023-04-07T13:34:52.864Z,11.38
2023-04-07T13:37:21.717Z,11.05
2023-04-07T13:39:53.068Z,14.88
2023-04-07T13:42:27.739Z,14.32
2023-04-07T13:45:02.118Z,9.73
2023-04-07T13:47:34.029Z,11.50
2023-04-07T13:50:04.218Z,12.65
2023-04-07T13:52:34.430Z,13.80
2023-04-07T13:55:03.561Z,13.68
2023-04-07T13:57:32.568Z,14.15
2023-04-07T14:00:01.897Z,13.07
2023-04-07T14:02:33.728Z,14.35
2023-04-07T14:05:05.373Z,15.50
2023-04-07T14:07:34.556Z,8.73
2023-04-07T14:10:06.896Z,10.63
2023-04-07T14:12:39.943Z,13.43
2023-04-07T14:15:09.716Z,10.73
2023-04-07T14:17:38.579Z,14.30
2023-04-07T14:20:06.099Z,11.82
2023-04-07T14:22:35.772Z,10.10
2023-04-07T14:25:07.035Z,10.30
2023-04-07T14:30:08.829Z,10.60
2023-04-07T14:32:37.728Z,8.87
2023-04-07T14:35:13.220Z,7.70
2023-04-07T14:37:45.534Z,13.10
2023-04-07T14:40:12.582Z,11.18
2023-04-07T14:42:41.784Z,7.05
2023-04-07T14:45:09.200Z,8.32
2023-04-07T14:47:41.975Z,9.02
2023-04-07T14:50:11.584Z,7.35
2023-04-07T14:52:40.395Z,8.68
2023-04-07T14:55:07.893Z,8.05
2023-04-07T14:57:34.556Z,9.60
2023-04-07T15:00:07.491Z,8.35
2023-04-07T15:02:36.609Z,7.25
2023-04-07T15:05:03.731Z,8.65
2023-04-07T15:07:30.576Z,9.93
2023-04-07T15:09:59.436Z,7.70
2023-04-07T15:12:31.507Z,8.35
2023-04-07T15:14:58.252Z,7.70
2023-04-07T15:17:39.996Z,6.80
2023-04-07T15:20:09.813Z,7.10
2023-04-07T15:22:38.730Z,7.55
2023-04-07T15:25:08.561Z,6.28
2023-04-07T15:27:37.942Z,15.23
2023-04-07T15:30:04.875Z,7.22
2023-04-07T15:32:31.979Z,7.30
2023-04-07T15:35:06.206Z,7.15
2023-04-07T15:37:35.449Z,7.40
2023-04-07T15:40:04.506Z,7.53
2023-04-07T15:42:41.724Z,7.85
2023-04-07T15:45:09.110Z,6.20
2023-04-07T15:47:37.965Z,7.38
2023-04-07T16:03:21.048Z,7.28
2023-04-07T16:05:53.783Z,8.82
2023-04-07T16:08:20.432Z,6.22
2023-04-07T16:10:47.217Z,7.43
2023-04-07T16:13:19.138Z,7.03
2023-04-07T16:18:30.284Z,6.43
2023-04-07T16:21:04.666Z,7.35
2023-04-07T16:23:31.501Z,7.63
2023-04-07T16:26:00.454Z,6.70
2023-04-07T16:28:29.320Z,7.82
2023-04-07T16:30:58.138Z,8.73
2023-04-07T16:33:26.110Z,9.48
2023-04-07T16:35:53.013Z,9.75
2023-04-07T16:38:29.967Z,8.05
2023-04-07T16:41:05.123Z,8.80
2023-04-07T16:43:34.070Z,8.45
2023-04-07T16:46:06.995Z,8.45
2023-04-07T16:48:39.068Z,8.57
2023-04-07T16:51:09.041Z,8.90
2023-04-07T16:53:35.738Z,8.45
2023-04-07T16:56:04.600Z,9.30
2023-04-07T16:58:35.932Z,10.75
2023-04-07T17:01:05.054Z,10.05
2023-04-07T17:03:34.054Z,9.85
2023-04-07T17:06:05.525Z,10.00
2023-04-07T17:08:35.930Z,9.77
2023-04-07T17:11:08.658Z,9.37
2023-04-07T17:13:40.026Z,10.43
2023-04-07T17:16:07.008Z,9.93
2023-04-07T17:18:34.003Z,9.50
2023-04-07T17:21:00.775Z,10.80
2023-04-07T17:23:32.180Z,10.15
2023-04-07T17:26:01.541Z,9.98
2023-04-07T17:28:30.170Z,10.32
2023-04-07T17:30:59.548Z,10.68
2023-04-07T17:33:32.084Z,11.10
2023-04-07T17:36:01.229Z,12.48
2023-04-07T17:38:31.026Z,11.63
2023-04-07T17:41:01.923Z,11.95
2023-04-07T17:43:28.822Z,11.93
2023-04-07T17:45:57.682Z,12.60
2023-04-07T17:48:24.378Z,11.90
2023-04-07T17:50:51.110Z,11.70
2023-04-07T17:53:17.787Z,12.45
2023-04-07T17:55:46.745Z,12.65
2023-04-07T17:58:15.587Z,12.48
2023-04-07T18:00:42.324Z,12.20
2023-04-07T18:03:15.542Z,12.63
2023-04-07T18:05:46.260Z,13.30
2023-04-07T18:08:18.472Z,13.03
2023-04-07T18:10:49.802Z,12.75
2023-04-07T18:13:19.266Z,13.18
2023-04-07T18:15:53.234Z,12.98
2023-04-07T18:18:22.243Z,12.15
2023-04-07T18:20:57.119Z,12.32
2023-04-07T18:23:25.950Z,12.15
2023-04-07T18:25:54.822Z,12.23
2023-04-07T18:28:26.323Z,13.50
2023-04-07T18:31:05.712Z,13.13
2023-04-07T18:33:33.288Z,12.82
2023-04-07T18:36:06.847Z,13.50
2023-04-07T18:38:34.488Z,13.05
2023-04-07T18:41:01.733Z,13.73
2023-04-07T18:43:28.382Z,13.43
2023-04-07T18:46:02.316Z,14.13
2023-04-07T18:48:29.037Z,14.95
2023-04-07T18:50:56.515Z,14.75
2023-04-07T18:53:24.019Z,14.40
2023-04-07T18:55:53.393Z,15.35
2023-04-07T18:58:20.988Z,15.95
2023-04-07T19:03:38.508Z,15.25
2023-04-07T19:06:08.523Z,16.15
2023-04-07T19:08:38.495Z,15.90
2023-04-07T19:11:05.114Z,15.70
2023-04-07T19:13:31.793Z,16.63
2023-04-07T19:16:00.591Z,16.08
2023-04-07T19:18:34.181Z,16.13
2023-04-07T19:21:03.437Z,15.73
2023-04-07T19:26:12.078Z,17.08
2023-04-07T19:28:41.155Z,16.65
2023-04-07T19:31:12.013Z,17.20
2023-04-07T19:33:43.625Z,18.50
2023-04-07T19:36:14.323Z,17.15
2023-04-07T19:38:41.188Z,18.08
2023-04-07T19:41:09.975Z,17.63
2023-04-07T19:43:41.778Z,18.25
2023-04-07T19:49:02.801Z,19.52
2023-04-07T19:51:37.720Z,19.48
2023-04-07T19:54:09.017Z,19.98
2023-04-07T19:56:41.348Z,19.27
2023-04-07T19:59:08.093Z,19.10
2023-04-07T20:01:34.779Z,19.05
2023-04-07T20:04:01.758Z,19.60
2023-04-07T20:06:36.606Z,19.50
2023-04-07T20:09:08.043Z,20.40
2023-04-07T20:11:39.866Z,19.75
2023-04-07T20:14:08.760Z,19.50
2023-04-07T20:16:35.701Z,19.33
2023-04-07T20:19:04.578Z,20.40
2023-04-07T20:21:32.408Z,19.42
2023-04-07T20:24:01.229Z,21.33
2023-04-07T20:26:33.145Z,20.80
2023-04-07T20:28:59.824Z,21.40
2023-04-07T20:31:29.197Z,20.27
2023-04-07T20:34:00.502Z,20.55
2023-04-07T20:36:29.270Z,21.90
2023-04-07T20:38:55.872Z,21.75
2023-04-07T20:41:25.365Z,21.60
2023-04-07T20:43:55.044Z,22.52
2023-04-07T20:46:27.775Z,21.15
2023-04-07T20:48:59.269Z,20.88
2023-04-07T20:51:36.756Z,20.85
2023-04-07T20:54:06.100Z,21.05
2023-04-07T20:56:39.973Z,21.42
2023-04-07T20:59:06.844Z,21.60
2023-04-07T21:01:40.033Z,20.48
2023-04-07T21:04:07.015Z,21.45
2023-04-07T21:06:39.042Z,21.00
2023-04-07T21:09:08.826Z,22.42
2023-04-07T21:11:41.764Z,22.27
2023-04-07T21:14:13.623Z,22.23
2023-04-07T21:16:43.719Z,22.60
2023-04-07T21:19:21.346Z,23.15
2023-04-07T21:21:52.865Z,23.20
2023-04-07T21:24:22.764Z,22.70
2023-04-07T21:26:52.516Z,23.05
2023-04-07T21:29:24.775Z,23.77
2023-04-07T21:37:15.921Z,23.38
2023-04-07T21:39:42.536Z,23.60
2023-04-07T21:42:09.204Z,23.80
2023-04-07T21:44:35.982Z,24.63
2023-04-07T21:47:02.605Z,23.67
2023-04-07T21:49:29.234Z,22.75
2023-04-07T21:51:56.140Z,23.17
2023-04-07T21:54:32.641Z,24.45
2023-04-07T21:57:01.027Z,24.08
2023-04-07T21:59:27.987Z,24.50
2023-04-07T22:02:01.047Z,24.02
2023-04-07T22:04:30.108Z,23.30
2023-04-07T22:06:58.187Z,23.00
2023-04-07T22:09:29.885Z,23.40
2023-04-07T22:12:05.400Z,23.63
2023-04-07T22:14:39.294Z,22.63
2023-04-07T22:17:08.199Z,22.60
2023-04-07T22:19:43.704Z,23.23
2023-04-07T22:22:10.470Z,22.33
2023-04-07T22:24:37.129Z,22.30
2023-04-07T22:27:07.147Z,22.58
2023-04-07T22:29:38.542Z,21.60
2023-04-07T22:32:07.469Z,21.45
2023-04-07T22:34:36.230Z,21.85
2023-04-07T22:37:05.388Z,21.65
2023-04-07T22:39:34.250Z,22.35
2023-04-07T22:42:05.813Z,21.58
2023-04-07T22:44:34.606Z,21.15
2023-04-07T22:47:01.385Z,20.95
2023-04-07T22:54:52.584Z,20.75
2023-04-07T22:57:24.847Z,20.48
2023-04-07T22:59:51.599Z,20.75
2023-04-07T23:02:26.330Z,19.65
2023-04-07T23:04:55.418Z,21.17
2023-04-07T23:07:24.344Z,19.77
2023-04-07T23:09:53.268Z,19.30
2023-04-07T23:12:22.362Z,20.60
2023-04-07T23:14:54.101Z,18.95
2023-04-07T23:22:34.799Z,19.20
2023-04-07T23:25:04.910Z,18.70
2023-04-07T23:27:38.857Z,19.17
2023-04-07T23:30:07.385Z,19.23
2023-04-07T23:32:34.600Z,17.95
2023-04-07T23:35:01.643Z,18.17
2023-04-07T23:37:32.903Z,18.85
2023-04-07T23:42:28.431Z,17.73
2023-04-07T23:44:57.273Z,18.27
2023-04-07T23:47:28.808Z,17.27
2023-04-07T23:50:00.236Z,17.58
2023-04-07T23:52:30.029Z,18.00
2023-04-07T23:55:02.101Z,17.35
2023-04-07T23:57:31.105Z,17.02
2023-04-07T23:59:59.997Z,17.58
